createdAt,value
2022-12-29T00:01:37.744Z,3.15
2022-12-29T00:04:07.656Z,2.78
2022-12-29T00:06:36.351Z,1.35
2022-12-29T00:09:02.730Z,3.58
2022-12-29T00:11:29.199Z,2.25
2022-12-29T00:14:14.446Z,2.75
2022-12-29T00:16:44.984Z,3.40
2022-12-29T00:19:32.355Z,2.40
2022-12-29T00:22:17.924Z,2.20
2022-12-29T00:25:03.681Z,1.95
2022-12-29T00:27:49.020Z,2.08
2022-12-29T00:30:35.280Z,1.98
2022-12-29T00:33:20.055Z,2.65
2022-12-29T00:35:48.697Z,1.52
2022-12-29T00:38:33.792Z,2.33
2022-12-29T00:41:18.799Z,1.48
2022-12-29T00:44:03.985Z,3.67
2022-12-29T00:46:30.413Z,1.88
2022-12-29T00:49:15.648Z,2.38
2022-12-29T00:51:42.319Z,1.88
2022-12-29T00:54:08.967Z,2.15
2022-12-29T00:56:35.370Z,1.75
2022-12-29T00:59:02.568Z,1.75
2022-12-29T01:01:29.093Z,2.05
2022-12-29T01:04:02.021Z,2.25
2022-12-29T01:06:30.326Z,1.90
2022-12-29T01:09:15.482Z,1.48
2022-12-29T01:14:09.123Z,1.80
2022-12-29T01:16:37.443Z,1.58
2022-12-29T01:19:04.324Z,2.53
2022-12-29T01:21:31.085Z,1.83
2022-12-29T01:23:57.619Z,1.42
2022-12-29T01:26:24.032Z,1.75
2022-12-29T01:28:51.979Z,2.10
2022-12-29T01:31:18.379Z,1.83
2022-12-29T01:33:44.776Z,2.58
2022-12-29T01:36:13.770Z,2.60
2022-12-29T01:38:40.942Z,2.95
2022-12-29T01:41:08.321Z,1.48
2022-12-29T01:43:40.779Z,1.50
2022-12-29T01:46:14.159Z,1.27
2022-12-29T01:48:40.711Z,1.95
2022-12-29T01:51:07.457Z,2.50
2022-12-29T01:53:34.671Z,1.70
2022-12-29T01:56:02.573Z,2.15
2022-12-29T01:58:31.553Z,1.73
2022-12-29T02:01:00.585Z,1.60
2022-12-29T02:03:28.077Z,2.40
2022-12-29T02:06:05.409Z,1.35
2022-12-29T02:08:31.819Z,1.52
2022-12-29T02:10:59.439Z,1.27
2022-12-29T02:13:26.386Z,2.75
2022-12-29T02:15:55.839Z,1.77
2022-12-29T02:18:28.374Z,2.15
2022-12-29T02:21:13.487Z,3.08
2022-12-29T02:24:00.265Z,1.27
2022-12-29T02:26:43.895Z,1.52
2022-12-29T02:29:10.335Z,2.08
2022-12-29T02:31:42.892Z,1.92
2022-12-29T02:34:28.484Z,1.23
2022-12-29T02:37:11.393Z,1.35
2022-12-29T02:39:51.310Z,1.55
2022-12-29T02:42:33.388Z,1.85
2022-12-29T02:45:05.345Z,1.77
2022-12-29T02:47:38.161Z,1.45
2022-12-29T02:50:05.710Z,2.00
2022-12-29T02:52:40.131Z,1.38
2022-12-29T02:55:07.842Z,2.28
2022-12-29T02:57:35.325Z,1.80
2022-12-29T03:00:05.380Z,1.38
2022-12-29T03:02:36.567Z,1.10
2022-12-29T03:05:21.947Z,1.33
2022-12-29T03:08:07.176Z,1.30
2022-12-29T03:10:42.503Z,1.92
2022-12-29T03:13:36.591Z,1.73
2022-12-29T03:16:26.539Z,2.15
2022-12-29T03:18:52.899Z,1.63
2022-12-29T03:21:50.954Z,2.33
2022-12-29T03:24:19.489Z,1.10
2022-12-29T03:29:14.831Z,1.73
2022-12-29T03:31:43.399Z,1.98
2022-12-29T03:34:10.885Z,0.80
2022-12-29T03:36:41.363Z,1.08
2022-12-29T03:39:13.082Z,1.27
2022-12-29T03:41:41.149Z,1.70
2022-12-29T03:44:08.204Z,1.75
2022-12-29T03:46:34.942Z,1.13
2022-12-29T03:49:02.373Z,1.70
2022-12-29T03:51:28.770Z,1.83
2022-12-29T03:53:55.977Z,1.63
2022-12-29T03:56:22.592Z,1.20
2022-12-29T03:58:50.042Z,1.83
2022-12-29T04:01:30.152Z,3.40
2022-12-29T04:03:56.609Z,1.25
2022-12-29T04:06:23.200Z,1.17
2022-12-29T04:08:54.532Z,1.60
2022-12-29T04:11:25.185Z,2.10
2022-12-29T04:13:55.031Z,1.38
2022-12-29T04:16:24.401Z,2.30
2022-12-29T04:18:51.008Z,1.30
2022-12-29T04:21:17.656Z,1.20
2022-12-29T04:23:44.703Z,1.10
2022-12-29T04:26:12.308Z,2.00
2022-12-29T04:28:49.240Z,0.88
2022-12-29T04:31:26.419Z,1.33
2022-12-29T04:33:52.925Z,1.10
2022-12-29T04:36:19.334Z,1.65
2022-12-29T04:38:46.002Z,2.47
2022-12-29T04:41:13.144Z,1.48
2022-12-29T04:43:39.779Z,1.95
2022-12-29T04:46:11.896Z,2.58
2022-12-29T04:49:01.485Z,1.20
2022-12-29T04:52:06.223Z,1.38
2022-12-29T04:54:33.385Z,1.67
2022-12-29T04:57:12.111Z,1.85
2022-12-29T04:59:39.502Z,1.90
2022-12-29T05:02:07.135Z,2.58
2022-12-29T05:04:34.958Z,2.03
2022-12-29T05:07:02.153Z,2.05
2022-12-29T05:09:28.704Z,1.45
2022-12-29T05:11:55.368Z,2.10
2022-12-29T05:14:22.364Z,2.08
2022-12-29T05:16:48.819Z,1.70
2022-12-29T05:19:15.252Z,1.75
2022-12-29T05:21:41.642Z,1.10
2022-12-29T05:24:08.379Z,1.90
2022-12-29T05:26:35.493Z,3.38
2022-12-29T05:29:10.020Z,1.42
2022-12-29T05:31:37.059Z,2.28
2022-12-29T05:34:05.014Z,2.53
2022-12-29T05:36:37.226Z,2.90
2022-12-29T05:39:04.599Z,2.22
2022-12-29T05:41:31.106Z,1.38
2022-12-29T05:44:17.731Z,3.83
2022-12-29T05:47:08.081Z,1.63
2022-12-29T05:49:43.932Z,2.67
2022-12-29T05:52:21.900Z,3.15
2022-12-29T05:54:48.831Z,2.35
2022-12-29T05:57:18.598Z,2.97
2022-12-29T05:59:50.020Z,3.33
2022-12-29T06:02:16.467Z,2.58
2022-12-29T06:04:43.927Z,3.13
2022-12-29T06:07:10.328Z,2.25
2022-12-29T06:09:41.984Z,2.95
2022-12-29T06:12:09.217Z,3.03
2022-12-29T06:14:37.574Z,4.53
2022-12-29T06:17:04.749Z,2.85
2022-12-29T06:19:32.426Z,1.02
2022-12-29T06:21:58.822Z,3.42
2022-12-29T06:24:25.333Z,2.63
2022-12-29T06:26:52.621Z,2.78
2022-12-29T06:29:19.042Z,3.65
2022-12-29T06:31:50.262Z,3.15
2022-12-29T06:34:16.713Z,4.05
2022-12-29T06:36:43.708Z,4.47
2022-12-29T06:39:11.224Z,2.00
2022-12-29T06:41:37.778Z,3.67
2022-12-29T06:44:12.975Z,3.17
2022-12-29T06:46:49.930Z,5.95
2022-12-29T06:49:16.292Z,3.28
2022-12-29T06:51:43.626Z,2.47
2022-12-29T06:54:10.016Z,4.03
2022-12-29T06:56:36.431Z,3.50
2022-12-29T06:59:02.823Z,3.88
2022-12-29T07:01:29.271Z,2.95
2022-12-29T07:03:55.764Z,3.40
2022-12-29T07:06:22.294Z,3.70
2022-12-29T07:08:48.706Z,4.15
2022-12-29T07:11:15.098Z,2.35
2022-12-29T07:13:41.828Z,4.35
2022-12-29T07:16:08.779Z,2.00
2022-12-29T07:18:35.603Z,5.63
2022-12-29T07:21:02.046Z,1.92
2022-12-29T07:23:28.518Z,4.50
2022-12-29T07:26:01.605Z,3.95
2022-12-29T07:28:28.106Z,4.30
2022-12-29T07:30:54.464Z,2.08
2022-12-29T07:33:20.859Z,2.78
2022-12-29T07:35:47.573Z,1.40
2022-12-29T07:38:13.921Z,2.30
2022-12-29T07:40:40.625Z,3.60
2022-12-29T07:43:06.993Z,2.97
2022-12-29T07:45:39.856Z,3.30
2022-12-29T07:48:09.262Z,3.15
2022-12-29T07:50:36.078Z,4.00
2022-12-29T07:53:02.498Z,3.60
2022-12-29T07:55:28.867Z,4.90
2022-12-29T07:57:55.568Z,4.95
2022-12-29T08:00:22.088Z,3.30
2022-12-29T08:02:48.522Z,2.95
2022-12-29T08:05:16.270Z,2.25
2022-12-29T08:12:35.178Z,3.75
2022-12-29T08:15:01.556Z,4.70
2022-12-29T08:17:27.893Z,3.05
2022-12-29T08:19:54.267Z,3.45
2022-12-29T08:22:20.631Z,3.42
2022-12-29T08:24:47.183Z,3.75
2022-12-29T08:27:20.459Z,3.65
2022-12-29T08:29:47.761Z,2.55
2022-12-29T08:32:14.174Z,2.88
2022-12-29T08:34:40.560Z,3.10
2022-12-29T08:37:07.107Z,3.95
2022-12-29T08:39:33.538Z,4.05
2022-12-29T08:42:00.004Z,3.78
2022-12-29T08:44:26.428Z,5.00
2022-12-29T08:46:52.850Z,5.00
2022-12-29T08:49:19.239Z,2.95
2022-12-29T08:51:45.664Z,3.40
2022-12-29T08:54:12.025Z,3.08
2022-12-29T08:56:39.402Z,1.63
2022-12-29T08:59:05.844Z,3.80
2022-12-29T09:01:32.462Z,3.95
2022-12-29T09:04:16.583Z,3.33
2022-12-29T09:06:44.284Z,2.00
2022-12-29T09:09:11.337Z,3.10
2022-12-29T09:11:37.740Z,3.17
2022-12-29T09:14:04.235Z,2.35
2022-12-29T09:16:30.877Z,3.08
2022-12-29T09:18:57.339Z,3.35
2022-12-29T09:21:23.695Z,5.68
2022-12-29T09:23:50.153Z,3.55
2022-12-29T09:26:16.498Z,4.22
2022-12-29T09:28:43.175Z,3.10
2022-12-29T09:31:09.636Z,2.95
2022-12-29T09:33:36.084Z,3.95
2022-12-29T09:36:02.801Z,2.72
2022-12-29T09:38:29.566Z,3.88
2022-12-29T09:41:05.869Z,4.35
2022-12-29T09:43:50.897Z,3.25
2022-12-29T09:46:17.343Z,4.80
2022-12-29T09:48:46.549Z,4.43
2022-12-29T09:51:14.629Z,3.38
2022-12-29T09:53:46.291Z,3.78
2022-12-29T09:56:18.803Z,4.57
2022-12-29T09:58:48.286Z,3.78
2022-12-29T10:01:24.134Z,1.92
2022-12-29T10:03:52.839Z,4.85
2022-12-29T10:06:25.379Z,3.67
2022-12-29T10:08:57.933Z,2.88
2022-12-29T10:11:32.244Z,4.30
2022-12-29T10:14:17.319Z,4.30
2022-12-29T10:16:43.738Z,4.15
2022-12-29T10:19:33.659Z,2.78
2022-12-29T10:22:03.364Z,2.58
2022-12-29T10:24:30.406Z,4.10
2022-12-29T10:26:57.696Z,5.57
2022-12-29T10:29:27.621Z,5.07
2022-12-29T10:32:01.729Z,4.43
2022-12-29T10:34:46.370Z,3.97
2022-12-29T10:37:34.196Z,5.13
2022-12-29T10:40:03.678Z,3.80
2022-12-29T10:42:37.629Z,2.83
2022-12-29T10:45:05.326Z,3.10
2022-12-29T10:47:36.158Z,3.80
2022-12-29T10:50:02.903Z,2.25
2022-12-29T10:52:29.768Z,2.70
2022-12-29T10:55:06.176Z,4.85
2022-12-29T10:57:45.055Z,3.58
2022-12-29T11:00:17.409Z,3.28
2022-12-29T11:02:44.261Z,3.40
2022-12-29T11:05:29.343Z,4.32
2022-12-29T11:07:59.059Z,3.53
2022-12-29T11:10:34.280Z,3.03
2022-12-29T11:13:01.913Z,3.88
2022-12-29T11:15:28.720Z,4.07
2022-12-29T11:17:58.152Z,5.63
2022-12-29T11:20:38.706Z,3.17
2022-12-29T11:23:21.411Z,6.38
2022-12-29T11:26:05.944Z,4.78
2022-12-29T11:28:34.203Z,4.65
2022-12-29T11:31:02.449Z,4.00
2022-12-29T11:33:29.810Z,3.30
2022-12-29T11:36:04.800Z,2.83
2022-12-29T11:38:40.001Z,6.18
2022-12-29T11:41:07.082Z,3.83
2022-12-29T11:43:38.812Z,4.72
2022-12-29T11:46:06.153Z,4.80
2022-12-29T11:48:40.235Z,3.28
2022-12-29T11:51:07.150Z,3.60
2022-12-29T11:53:39.783Z,4.53
2022-12-29T11:56:09.132Z,5.20
2022-12-29T11:58:37.386Z,3.40
2022-12-29T12:01:21.891Z,4.78
2022-12-29T12:03:54.932Z,4.88
2022-12-29T12:06:25.055Z,3.85
2022-12-29T12:08:55.519Z,4.50
2022-12-29T12:11:25.820Z,2.83
2022-12-29T12:14:03.461Z,4.55
2022-12-29T12:16:53.739Z,3.85
2022-12-29T12:19:32.170Z,4.78
2022-12-29T12:22:20.930Z,3.67
2022-12-29T12:24:55.227Z,4.72
2022-12-29T12:27:35.869Z,4.53
2022-12-29T12:30:04.093Z,5.22
2022-12-29T12:32:43.928Z,5.20
2022-12-29T12:35:33.603Z,5.13
2022-12-29T12:38:00.130Z,4.22
2022-12-29T12:40:26.582Z,3.20
2022-12-29T12:42:59.096Z,4.15
2022-12-29T12:45:37.257Z,3.97
2022-12-29T12:48:22.372Z,4.18
2022-12-29T12:50:53.042Z,3.58
2022-12-29T12:53:43.843Z,3.22
2022-12-29T12:56:13.340Z,3.67
2022-12-29T12:58:42.552Z,6.50
2022-12-29T13:01:08.990Z,5.47
2022-12-29T13:03:54.153Z,5.63
2022-12-29T13:06:20.484Z,5.32
2022-12-29T13:08:46.845Z,5.60
2022-12-29T13:11:16.056Z,6.90
2022-12-29T13:14:00.824Z,4.32
2022-12-29T13:16:35.553Z,7.10
2022-12-29T13:19:17.397Z,6.45
2022-12-29T13:22:00.220Z,4.57
2022-12-29T13:24:28.429Z,4.72
2022-12-29T13:27:02.400Z,6.40
2022-12-29T13:29:34.822Z,4.22
2022-12-29T13:32:24.029Z,6.70
2022-12-29T13:35:08.823Z,6.47
2022-12-29T13:37:37.097Z,5.85
2022-12-29T13:40:05.761Z,4.60
2022-12-29T13:42:32.625Z,5.63
2022-12-29T13:45:01.887Z,3.95
2022-12-29T13:47:32.056Z,6.15
2022-12-29T13:49:59.669Z,5.03
2022-12-29T13:52:32.632Z,4.53
2022-12-29T13:55:08.091Z,5.35
2022-12-29T13:57:46.794Z,5.88
2022-12-29T14:00:15.618Z,4.75
2022-12-29T14:02:54.385Z,4.75
2022-12-29T14:05:20.834Z,7.28
2022-12-29T14:07:47.657Z,6.07
2022-12-29T14:10:49.447Z,5.32
2022-12-29T14:13:17.478Z,5.60
2022-12-29T14:15:46.382Z,4.00
2022-12-29T14:18:15.370Z,5.65
2022-12-29T14:20:52.001Z,5.80
2022-12-29T14:23:27.735Z,6.15
2022-12-29T14:25:56.147Z,5.03
2022-12-29T14:28:49.080Z,5.65
2022-12-29T14:31:15.609Z,6.28
2022-12-29T14:33:42.650Z,3.42
2022-12-29T14:36:34.773Z,4.97
2022-12-29T14:43:58.718Z,5.10
2022-12-29T14:46:25.416Z,5.40
2022-12-29T14:48:56.380Z,5.38
2022-12-29T14:51:41.026Z,4.05
2022-12-29T14:54:39.763Z,4.78
2022-12-29T14:57:08.335Z,4.30
2022-12-29T14:59:35.687Z,5.15
2022-12-29T15:02:04.036Z,4.28
2022-12-29T15:04:34.353Z,4.05
2022-12-29T15:07:04.217Z,4.65
2022-12-29T15:09:34.593Z,7.20
2022-12-29T15:12:16.583Z,5.38
2022-12-29T15:15:01.175Z,3.65
2022-12-29T15:17:28.969Z,5.47
2022-12-29T15:22:21.987Z,3.60
2022-12-29T15:24:50.399Z,4.55
2022-12-29T15:27:19.651Z,4.63
2022-12-29T15:29:46.754Z,4.32
2022-12-29T15:32:16.225Z,3.78
2022-12-29T15:34:43.208Z,3.53
2022-12-29T15:37:10.145Z,4.68
2022-12-29T15:39:36.681Z,4.72
2022-12-29T15:42:17.263Z,3.78
2022-12-29T15:44:45.108Z,5.07
2022-12-29T15:47:17.376Z,3.47
2022-12-29T15:49:44.767Z,3.30
2022-12-29T15:52:11.628Z,4.13
2022-12-29T15:54:38.631Z,4.53
2022-12-29T15:57:12.050Z,4.70
2022-12-29T15:59:46.449Z,4.45
2022-12-29T16:02:12.961Z,5.40
2022-12-29T16:05:01.474Z,5.68
2022-12-29T16:07:37.275Z,3.78
2022-12-29T16:10:22.695Z,4.70
2022-12-29T16:12:49.070Z,5.45
2022-12-29T16:15:15.885Z,4.72
2022-12-29T16:17:49.693Z,5.30
2022-12-29T16:22:44.786Z,4.55
2022-12-29T16:25:17.305Z,6.72
2022-12-29T16:27:44.118Z,4.50
2022-12-29T16:30:16.315Z,4.00
2022-12-29T16:32:47.006Z,3.15
2022-12-29T16:35:21.292Z,4.57
2022-12-29T16:37:48.263Z,3.05
2022-12-29T16:40:24.836Z,3.65
2022-12-29T16:42:55.199Z,4.82
2022-12-29T16:45:21.809Z,3.38
2022-12-29T16:47:49.603Z,4.20
2022-12-29T16:55:17.394Z,4.05
2022-12-29T16:57:44.207Z,4.55
2022-12-29T17:00:33.565Z,4.43
2022-12-29T17:03:01.482Z,4.10
2022-12-29T17:05:28.004Z,3.55
2022-12-29T17:07:55.837Z,3.72
2022-12-29T17:10:42.185Z,5.65
2022-12-29T17:13:08.641Z,3.88
2022-12-29T17:15:35.764Z,3.47
2022-12-29T17:18:02.280Z,6.00
2022-12-29T17:20:30.162Z,3.92
2022-12-29T17:22:56.884Z,4.30
2022-12-29T17:25:31.858Z,5.07
2022-12-29T17:28:02.974Z,4.18
2022-12-29T17:30:33.951Z,5.43
2022-12-29T17:33:09.860Z,3.40
2022-12-29T17:35:36.413Z,3.00
2022-12-29T17:38:02.766Z,6.10
2022-12-29T17:40:30.971Z,4.97
2022-12-29T17:42:58.200Z,4.10
2022-12-29T17:45:25.689Z,4.68
2022-12-29T17:47:52.057Z,4.43
2022-12-29T17:50:23.384Z,3.95
2022-12-29T17:53:00.077Z,5.22
2022-12-29T17:55:32.759Z,3.10
2022-12-29T17:58:14.315Z,5.53
2022-12-29T18:00:40.724Z,6.15
2022-12-29T18:03:09.050Z,4.20
2022-12-29T18:05:35.594Z,4.68
2022-12-29T18:08:01.960Z,4.25
2022-12-29T18:10:30.437Z,3.97
2022-12-29T18:12:58.977Z,4.72
2022-12-29T18:15:28.098Z,4.20
2022-12-29T18:17:59.669Z,4.32
2022-12-29T18:20:26.289Z,4.47
2022-12-29T18:22:52.855Z,4.93
2022-12-29T18:25:19.162Z,3.88
2022-12-29T18:27:45.555Z,4.03
2022-12-29T18:30:12.150Z,5.43
2022-12-29T18:32:38.529Z,5.20
2022-12-29T18:35:10.083Z,4.03
2022-12-29T18:37:36.455Z,4.53
2022-12-29T18:40:02.816Z,3.53
2022-12-29T18:42:29.199Z,5.03
2022-12-29T18:44:55.559Z,4.95
2022-12-29T18:47:22.046Z,4.93
2022-12-29T18:49:48.420Z,3.75
2022-12-29T18:52:14.824Z,4.45
2022-12-29T18:54:41.215Z,3.97
2022-12-29T18:57:07.839Z,4.43
2022-12-29T18:59:34.265Z,5.93
2022-12-29T19:02:00.694Z,5.30
2022-12-29T19:04:27.688Z,5.30
2022-12-29T19:06:54.143Z,3.45
2022-12-29T19:09:20.478Z,3.58
2022-12-29T19:11:46.825Z,3.97
2022-12-29T19:14:15.352Z,4.75
2022-12-29T19:16:41.897Z,3.35
2022-12-29T19:19:13.692Z,2.92
2022-12-29T19:21:40.072Z,3.35
2022-12-29T19:24:06.556Z,4.13
2022-12-29T19:26:35.947Z,3.95
2022-12-29T19:29:02.767Z,3.72
2022-12-29T19:31:29.361Z,4.68
2022-12-29T19:33:56.027Z,4.90
2022-12-29T19:36:22.586Z,5.25
2022-12-29T19:38:49.281Z,4.63
2022-12-29T19:41:15.868Z,3.58
2022-12-29T19:43:42.398Z,3.67
2022-12-29T19:46:09.767Z,4.40
2022-12-29T19:48:36.518Z,8.82
2022-12-29T19:51:04.131Z,4.65
2022-12-29T19:53:30.484Z,6.10
2022-12-29T19:55:56.827Z,5.60
2022-12-29T19:58:23.180Z,4.35
2022-12-29T20:00:51.165Z,5.80
2022-12-29T20:03:19.120Z,5.45
2022-12-29T20:05:49.202Z,4.93
2022-12-29T20:08:15.583Z,4.95
2022-12-29T20:10:41.985Z,3.95
2022-12-29T20:13:08.347Z,4.95
2022-12-29T20:15:34.735Z,6.45
2022-12-29T20:18:16.503Z,3.72
2022-12-29T20:20:43.086Z,6.25
2022-12-29T20:23:09.632Z,7.45
2022-12-29T20:25:45.367Z,5.38
2022-12-29T20:28:13.066Z,6.07
2022-12-29T20:30:39.434Z,5.35
2022-12-29T20:33:08.315Z,4.32
2022-12-29T20:35:35.358Z,5.60
2022-12-29T20:38:01.819Z,5.00
2022-12-29T20:40:28.229Z,6.15
2022-12-29T20:42:54.657Z,6.20
2022-12-29T20:45:21.767Z,5.78
2022-12-29T20:47:48.160Z,4.15
2022-12-29T20:50:14.597Z,6.55
2022-12-29T20:52:41.000Z,5.07
2022-12-29T20:55:07.528Z,5.20
2022-12-29T20:57:49.913Z,6.55
2022-12-29T21:00:22.645Z,3.97
2022-12-29T21:02:49.622Z,4.80
2022-12-29T21:05:24.937Z,5.22
2022-12-29T21:07:52.238Z,4.07
2022-12-29T21:10:18.709Z,6.35
2022-12-29T21:12:45.151Z,6.65
2022-12-29T21:15:14.327Z,5.75
2022-12-29T21:17:41.124Z,5.28
2022-12-29T21:20:07.954Z,5.03
2022-12-29T21:22:34.293Z,5.50
2022-12-29T21:25:00.616Z,6.80
2022-12-29T21:27:26.966Z,5.60
2022-12-29T21:29:53.299Z,7.93
2022-12-29T21:32:19.647Z,5.68
2022-12-29T21:34:46.627Z,5.55
2022-12-29T21:37:15.157Z,7.90
2022-12-29T21:39:43.783Z,3.75
2022-12-29T21:42:10.195Z,6.43
2022-12-29T21:44:55.448Z,5.35
2022-12-29T21:47:21.777Z,5.43
2022-12-29T21:49:48.138Z,5.65
2022-12-29T21:52:14.618Z,6.78
2022-12-29T21:54:59.584Z,6.10
2022-12-29T21:57:44.367Z,7.72
2022-12-29T22:00:29.582Z,4.78
2022-12-29T22:03:21.902Z,5.10
2022-12-29T22:06:08.384Z,4.78
2022-12-29T22:08:53.797Z,6.13
2022-12-29T22:11:38.709Z,4.80
2022-12-29T22:14:06.327Z,6.32
2022-12-29T22:16:32.864Z,5.05
2022-12-29T22:18:59.268Z,7.70
2022-12-29T22:21:25.588Z,6.28
2022-12-29T22:23:51.926Z,3.95
2022-12-29T22:26:18.342Z,4.40
2022-12-29T22:28:46.231Z,6.82
2022-12-29T22:33:38.994Z,6.35
2022-12-29T22:36:05.509Z,6.57
2022-12-29T22:38:32.442Z,3.65
2022-12-29T22:40:59.878Z,5.35
2022-12-29T22:43:29.775Z,5.28
2022-12-29T22:46:01.931Z,4.95
2022-12-29T22:48:28.290Z,6.57
2022-12-29T22:50:55.227Z,6.80
2022-12-29T22:53:21.566Z,6.85
2022-12-29T22:55:47.902Z,6.45
2022-12-29T22:58:14.325Z,5.55
2022-12-29T23:00:40.739Z,5.30
2022-12-29T23:03:07.462Z,5.80
2022-12-29T23:05:34.005Z,4.97
2022-12-29T23:08:00.333Z,6.90
2022-12-29T23:10:26.975Z,3.85
2022-12-29T23:12:53.342Z,5.25
2022-12-29T23:15:19.706Z,7.25
2022-12-29T23:17:46.049Z,5.07
2022-12-29T23:20:12.433Z,5.10
2022-12-29T23:22:43.003Z,5.07
2022-12-29T23:25:09.508Z,5.78
2022-12-29T23:27:35.835Z,3.58
2022-12-29T23:30:02.194Z,5.55
2022-12-29T23:32:28.548Z,4.97
2022-12-29T23:34:54.947Z,5.47
2022-12-29T23:37:21.315Z,5.53
2022-12-29T23:39:47.698Z,5.38
2022-12-29T23:42:14.103Z,4.22
2022-12-29T23:44:40.513Z,5.03
2022-12-29T23:47:06.931Z,5.50
2022-12-29T23:49:33.405Z,4.43
2022-12-29T23:51:59.778Z,4.22
2022-12-29T23:54:26.137Z,4.60
2022-12-29T23:56:52.792Z,6.03
2022-12-29T23:59:19.172Z,5.38
